sensor_id;sensor_type;location;lat;lon;timestamp;pressure;altitude;pressure_sealevel;temperature;humidity
28448;BME280;15675;52.870;-1.416;2022-10-16T00:01:28;99519.34;;;11.16;100.00
28448;BME280;15675;52.870;-1.416;2022-10-16T00:03:55;99519.63;;;11.00;100.00
28448;BME280;15675;52.870;-1.416;2022-10-16T00:06:22;99520.97;;;11.21;100.00
28448;BME280;15675;52.870;-1.416;2022-10-16T00:08:50;99516.66;;;11.22;100.00
28448;BME280;15675;52.870;-1.416;2022-10-16T00:11:19;99514.09;;;11.20;100.00
28448;BME280;15675;52.870;-1.416;2022-10-16T00:13:47;99511.56;;;11.17;100.00
28448;BME280;15675;52.870;-1.416;2022-10-16T00:16:13;99524.63;;;11.11;100.00
28448;BME280;15675;52.870;-1.416;2022-10-16T00:18:40;99537.84;;;10.99;100.00
28448;BME280;15675;52.870;-1.416;2022-10-16T00:21:17;99532.59;;;11.02;100.00
28448;BME280;15675;52.870;-1.416;2022-10-16T00:23:43;99540.13;;;11.16;100.00
28448;BME280;15675;52.870;-1.416;2022-10-16T00:26:11;99534.00;;;11.20;100.00
28448;BME280;15675;52.870;-1.416;2022-10-16T00:28:37;99535.13;;;11.05;100.00
28448;BME280;15675;52.870;-1.416;2022-10-16T00:31:09;99533.41;;;11.04;100.00
28448;BME280;15675;52.870;-1.416;2022-10-16T00:33:35;99536.53;;;11.25;100.00
28448;BME280;15675;52.870;-1.416;2022-10-16T00:36:03;99538.22;;;11.26;100.00
28448;BME280;15675;52.870;-1.416;2022-10-16T00:38:29;99517.69;;;11.13;100.00
28448;BME280;15675;52.870;-1.416;2022-10-16T00:40:55;99512.56;;;11.07;100.00
28448;BME280;15675;52.870;-1.416;2022-10-16T00:43:41;99525.53;;;11.10;100.00
28448;BME280;15675;52.870;-1.416;2022-10-16T00:46:27;99531.72;;;11.01;100.00
28448;BME280;15675;52.870;-1.416;2022-10-16T00:49:14;99540.34;;;11.03;100.00
28448;BME280;15675;52.870;-1.416;2022-10-16T00:51:46;99535.13;;;11.05;100.00
28448;BME280;15675;52.870;-1.416;2022-10-16T00:54:17;99555.81;;;11.10;100.00
28448;BME280;15675;52.870;-1.416;2022-10-16T00:56:45;99570.56;;;11.09;100.00
28448;BME280;15675;52.870;-1.416;2022-10-16T00:59:16;99568.63;;;11.20;100.00
28448;BME280;15675;52.870;-1.416;2022-10-16T01:01:45;99553.97;;;11.18;100.00
28448;BME280;15675;52.870;-1.416;2022-10-16T01:04:12;99585.16;;;11.16;100.00
28448;BME280;15675;52.870;-1.416;2022-10-16T01:06:57;99594.50;;;11.27;100.00
28448;BME280;15675;52.870;-1.416;2022-10-16T01:12:17;99612.72;;;11.25;100.00
28448;BME280;15675;52.870;-1.416;2022-10-16T01:14:54;99609.84;;;11.40;100.00
28448;BME280;15675;52.870;-1.416;2022-10-16T01:17:34;99623.03;;;11.28;100.00
28448;BME280;15675;52.870;-1.416;2022-10-16T01:22:41;99600.41;;;11.35;100.00
28448;BME280;15675;52.870;-1.416;2022-10-16T01:25:17;99604.91;;;11.25;100.00
28448;BME280;15675;52.870;-1.416;2022-10-16T01:27:46;99602.47;;;11.14;100.00
28448;BME280;15675;52.870;-1.416;2022-10-16T01:30:29;99620.72;;;11.11;100.00
28448;BME280;15675;52.870;-1.416;2022-10-16T01:33:01;99626.47;;;11.32;100.00
28448;BME280;15675;52.870;-1.416;2022-10-16T01:35:37;99618.34;;;10.96;100.00
28448;BME280;15675;52.870;-1.416;2022-10-16T01:38:12;99605.31;;;11.00;100.00
28448;BME280;15675;52.870;-1.416;2022-10-16T01:40:45;99621.91;;;10.92;100.00
28448;BME280;15675;52.870;-1.416;2022-10-16T01:43:45;99633.94;;;10.96;100.00
28448;BME280;15675;52.870;-1.416;2022-10-16T01:46:10;99630.69;;;10.81;100.00
28448;BME280;15675;52.870;-1.416;2022-10-16T01:48:36;99646.00;;;10.98;100.00
28448;BME280;15675;52.870;-1.416;2022-10-16T01:51:06;99619.16;;;11.01;100.00
28448;BME280;15675;52.870;-1.416;2022-10-16T01:53:34;99631.44;;;10.90;100.00
28448;BME280;15675;52.870;-1.416;2022-10-16T01:56:03;99601.31;;;10.79;100.00
28448;BME280;15675;52.870;-1.416;2022-10-16T01:58:30;99620.75;;;10.50;100.00
28448;BME280;15675;52.870;-1.416;2022-10-16T02:01:01;99624.44;;;10.29;100.00
28448;BME280;15675;52.870;-1.416;2022-10-16T02:03:27;99638.22;;;10.38;100.00
28448;BME280;15675;52.870;-1.416;2022-10-16T02:05:55;99645.94;;;10.41;100.00
28448;BME280;15675;52.870;-1.416;2022-10-16T02:08:24;99626.94;;;10.39;100.00
28448;BME280;15675;52.870;-1.416;2022-10-16T02:10:55;99654.50;;;10.47;100.00
28448;BME280;15675;52.870;-1.416;2022-10-16T02:13:32;99654.31;;;10.61;100.00
28448;BME280;15675;52.870;-1.416;2022-10-16T02:16:00;99670.03;;;10.50;100.00
28448;BME280;15675;52.870;-1.416;2022-10-16T02:18:26;99671.44;;;10.76;100.00
28448;BME280;15675;52.870;-1.416;2022-10-16T02:21:16;99671.38;;;10.79;100.00
28448;BME280;15675;52.870;-1.416;2022-10-16T02:23:58;99663.84;;;10.61;100.00
28448;BME280;15675;52.870;-1.416;2022-10-16T02:26:48;99681.84;;;10.71;100.00
28448;BME280;15675;52.870;-1.416;2022-10-16T02:29:17;99697.69;;;10.55;100.00
28448;BME280;15675;52.870;-1.416;2022-10-16T02:31:46;99689.88;;;10.53;100.00
28448;BME280;15675;52.870;-1.416;2022-10-16T02:34:14;99702.00;;;10.52;100.00
28448;BME280;15675;52.870;-1.416;2022-10-16T02:36:41;99712.25;;;10.63;100.00
28448;BME280;15675;52.870;-1.416;2022-10-16T02:39:08;99704.72;;;10.45;100.00
28448;BME280;15675;52.870;-1.416;2022-10-16T02:41:35;99725.09;;;10.74;100.00
28448;BME280;15675;52.870;-1.416;2022-10-16T02:44:00;99726.88;;;10.70;100.00
28448;BME280;15675;52.870;-1.416;2022-10-16T02:46:26;99725.16;;;10.69;100.00
28448;BME280;15675;52.870;-1.416;2022-10-16T02:48:52;99726.88;;;10.72;100.00
28448;BME280;15675;52.870;-1.416;2022-10-16T02:51:17;99725.06;;;10.76;100.00
28448;BME280;15675;52.870;-1.416;2022-10-16T02:53:43;99726.00;;;10.73;100.00
28448;BME280;15675;52.870;-1.416;2022-10-16T02:56:10;99734.00;;;10.53;100.00
28448;BME280;15675;52.870;-1.416;2022-10-16T02:58:36;99734.72;;;10.67;100.00
28448;BME280;15675;52.870;-1.416;2022-10-16T03:01:04;99736.63;;;10.50;100.00
28448;BME280;15675;52.870;-1.416;2022-10-16T03:03:29;99743.47;;;10.56;100.00
28448;BME280;15675;52.870;-1.416;2022-10-16T03:05:55;99755.78;;;10.40;100.00
28448;BME280;15675;52.870;-1.416;2022-10-16T03:08:21;99765.22;;;10.47;100.00
28448;BME280;15675;52.870;-1.416;2022-10-16T03:10:49;99764.97;;;10.68;100.00
28448;BME280;15675;52.870;-1.416;2022-10-16T03:13:15;99772.88;;;10.59;100.00
28448;BME280;15675;52.870;-1.416;2022-10-16T03:15:41;99785.59;;;10.79;100.00
28448;BME280;15675;52.870;-1.416;2022-10-16T03:18:06;99789.00;;;10.86;100.00
28448;BME280;15675;52.870;-1.416;2022-10-16T03:20:32;99791.91;;;10.58;100.00
28448;BME280;15675;52.870;-1.416;2022-10-16T03:22:57;99795.28;;;10.65;100.00
28448;BME280;15675;52.870;-1.416;2022-10-16T03:25:23;99801.41;;;10.59;100.00
28448;BME280;15675;52.870;-1.416;2022-10-16T03:27:48;99801.63;;;10.34;100.00
28448;BME280;15675;52.870;-1.416;2022-10-16T03:30:14;99803.22;;;10.51;100.00
28448;BME280;15675;52.870;-1.416;2022-10-16T03:32:40;99797.13;;;10.55;100.00
28448;BME280;15675;52.870;-1.416;2022-10-16T03:35:06;99808.53;;;10.39;100.00
28448;BME280;15675;52.870;-1.416;2022-10-16T03:37:31;99818.06;;;10.36;100.00
28448;BME280;15675;52.870;-1.416;2022-10-16T03:39:57;99818.13;;;10.26;100.00
28448;BME280;15675;52.870;-1.416;2022-10-16T03:42:23;99820.66;;;10.33;100.00
28448;BME280;15675;52.870;-1.416;2022-10-16T03:44:50;99831.91;;;10.34;100.00
28448;BME280;15675;52.870;-1.416;2022-10-16T03:47:15;99836.22;;;10.38;100.00
28448;BME280;15675;52.870;-1.416;2022-10-16T03:49:45;99840.44;;;10.47;100.00
28448;BME280;15675;52.870;-1.416;2022-10-16T03:52:11;99843.16;;;10.38;100.00
28448;BME280;15675;52.870;-1.416;2022-10-16T03:54:37;99855.22;;;10.39;100.00
28448;BME280;15675;52.870;-1.416;2022-10-16T03:57:02;99867.34;;;10.36;100.00
28448;BME280;15675;52.870;-1.416;2022-10-16T03:59:28;99870.03;;;10.23;100.00
28448;BME280;15675;52.870;-1.416;2022-10-16T04:01:54;99868.28;;;10.28;100.00
28448;BME280;15675;52.870;-1.416;2022-10-16T04:04:19;99876.09;;;10.20;100.00
28448;BME280;15675;52.870;-1.416;2022-10-16T04:06:45;99875.22;;;10.21;100.00
28448;BME280;15675;52.870;-1.416;2022-10-16T04:09:10;99877.00;;;10.14;100.00
28448;BME280;15675;52.870;-1.416;2022-10-16T04:11:36;99889.94;;;10.19;100.00
28448;BME280;15675;52.870;-1.416;2022-10-16T04:14:02;99892.63;;;10.08;100.00
28448;BME280;15675;52.870;-1.416;2022-10-16T04:16:28;99889.94;;;10.19;100.00
28448;BME280;15675;52.870;-1.416;2022-10-16T04:18:53;99905.41;;;10.30;100.00
28448;BME280;15675;52.870;-1.416;2022-10-16T04:21:19;99899.44;;;10.18;100.00
28448;BME280;15675;52.870;-1.416;2022-10-16T04:23:44;99903.81;;;10.10;100.00
28448;BME280;15675;52.870;-1.416;2022-10-16T04:26:10;99914.94;;;10.29;100.00
28448;BME280;15675;52.870;-1.416;2022-10-16T04:28:36;99910.75;;;10.10;100.00
28448;BME280;15675;52.870;-1.416;2022-10-16T04:31:05;99912.50;;;10.08;100.00
28448;BME280;15675;52.870;-1.416;2022-10-16T04:33:31;99930.66;;;10.05;100.00
28448;BME280;15675;52.870;-1.416;2022-10-16T04:36:00;99947.94;;;10.06;100.00
28448;BME280;15675;52.870;-1.416;2022-10-16T04:38:26;99949.59;;;10.16;100.00
28448;BME280;15675;52.870;-1.416;2022-10-16T04:40:52;99946.13;;;10.17;100.00
28448;BME280;15675;52.870;-1.416;2022-10-16T04:43:18;99959.28;;;9.91;100.00
28448;BME280;15675;52.870;-1.416;2022-10-16T04:45:44;99969.56;;;10.01;100.00
28448;BME280;15675;52.870;-1.416;2022-10-16T04:48:10;99975.63;;;10.02;100.00
28448;BME280;15675;52.870;-1.416;2022-10-16T04:50:35;99974.84;;;9.91;100.00
28448;BME280;15675;52.870;-1.416;2022-10-16T04:53:01;99984.22;;;10.07;100.00
28448;BME280;15675;52.870;-1.416;2022-10-16T04:55:26;99987.72;;;10.06;100.00
28448;BME280;15675;52.870;-1.416;2022-10-16T04:57:52;99994.66;;;9.98;100.00
28448;BME280;15675;52.870;-1.416;2022-10-16T05:00:17;100001.59;;;9.93;100.00
28448;BME280;15675;52.870;-1.416;2022-10-16T05:02:43;100006.78;;;9.94;100.00
28448;BME280;15675;52.870;-1.416;2022-10-16T05:05:09;100023.09;;;10.10;100.00
28448;BME280;15675;52.870;-1.416;2022-10-16T05:07:34;100029.16;;;10.14;100.00
28448;BME280;15675;52.870;-1.416;2022-10-16T05:10:00;100036.97;;;10.08;100.00
28448;BME280;15675;52.870;-1.416;2022-10-16T05:12:25;100045.63;;;9.99;100.00
28448;BME280;15675;52.870;-1.416;2022-10-16T05:14:51;100052.56;;;9.98;100.00
28448;BME280;15675;52.870;-1.416;2022-10-16T05:17:16;100056.03;;;10.00;100.00
28448;BME280;15675;52.870;-1.416;2022-10-16T05:19:43;100054.25;;;10.06;100.00
28448;BME280;15675;52.870;-1.416;2022-10-16T05:22:09;100047.34;;;10.01;100.00
28448;BME280;15675;52.870;-1.416;2022-10-16T05:24:35;100062.94;;;9.95;100.00
28448;BME280;15675;52.870;-1.416;2022-10-16T05:27:00;100069.06;;;9.83;100.00
28448;BME280;15675;52.870;-1.416;2022-10-16T05:29:25;100075.06;;;9.89;100.00
28448;BME280;15675;52.870;-1.416;2022-10-16T05:31:52;100081.94;;;9.99;100.00
28448;BME280;15675;52.870;-1.416;2022-10-16T05:34:19;100090.59;;;9.96;100.00
28448;BME280;15675;52.870;-1.416;2022-10-16T05:36:46;100087.13;;;10.04;100.00
28448;BME280;15675;52.870;-1.416;2022-10-16T05:39:12;100086.31;;;9.88;100.00
28448;BME280;15675;52.870;-1.416;2022-10-16T05:41:38;100101.84;;;9.95;100.00
28448;BME280;15675;52.870;-1.416;2022-10-16T05:44:04;100107.88;;;9.94;100.00
28448;BME280;15675;52.870;-1.416;2022-10-16T05:46:31;100123.47;;;9.88;100.00
28448;BME280;15675;52.870;-1.416;2022-10-16T05:48:57;100137.28;;;9.96;100.00
28448;BME280;15675;52.870;-1.416;2022-10-16T05:51:22;100131.22;;;9.96;100.00
28448;BME280;15675;52.870;-1.416;2022-10-16T05:53:48;100132.97;;;9.89;100.00
28448;BME280;15675;52.870;-1.416;2022-10-16T05:56:13;100135.53;;;9.98;100.00
28448;BME280;15675;52.870;-1.416;2022-10-16T05:58:39;100135.56;;;9.89;100.00
28448;BME280;15675;52.870;-1.416;2022-10-16T06:01:25;100142.50;;;9.78;100.00
28448;BME280;15675;52.870;-1.416;2022-10-16T06:03:53;100146.78;;;9.80;100.00
28448;BME280;15675;52.870;-1.416;2022-10-16T06:06:21;100147.69;;;9.78;100.00
28448;BME280;15675;52.870;-1.416;2022-10-16T06:08:49;100152.03;;;9.59;100.00
28448;BME280;15675;52.870;-1.416;2022-10-16T06:11:17;100156.31;;;9.67;100.00
28448;BME280;15675;52.870;-1.416;2022-10-16T06:13:42;100158.06;;;9.65;100.00
28448;BME280;15675;52.870;-1.416;2022-10-16T06:16:11;100172.72;;;9.76;100.00
28448;BME280;15675;52.870;-1.416;2022-10-16T06:18:37;100164.97;;;9.60;100.00
28448;BME280;15675;52.870;-1.416;2022-10-16T06:21:11;100166.72;;;9.57;100.00
28448;BME280;15675;52.870;-1.416;2022-10-16T06:23:37;100170.19;;;9.63;100.00
28448;BME280;15675;52.870;-1.416;2022-10-16T06:26:10;100169.28;;;9.64;100.00
28448;BME280;15675;52.870;-1.416;2022-10-16T06:28:37;100171.88;;;9.74;100.00
28448;BME280;15675;52.870;-1.416;2022-10-16T06:31:03;100176.19;;;9.70;100.00
28448;BME280;15675;52.870;-1.416;2022-10-16T06:33:29;100188.28;;;9.77;100.00
28448;BME280;15675;52.870;-1.416;2022-10-16T06:38:31;100189.16;;;9.64;100.00
28448;BME280;15675;52.870;-1.416;2022-10-16T06:40:58;100199.53;;;9.76;100.00
28448;BME280;15675;52.870;-1.416;2022-10-16T06:43:24;100206.47;;;9.63;100.00
28448;BME280;15675;52.870;-1.416;2022-10-16T06:45:51;100216.78;;;9.59;100.00
28448;BME280;15675;52.870;-1.416;2022-10-16T06:48:17;100221.97;;;9.60;100.00
28448;BME280;15675;52.870;-1.416;2022-10-16T06:50:42;100217.69;;;9.61;100.00
28448;BME280;15675;52.870;-1.416;2022-10-16T06:53:08;100224.56;;;9.62;100.00
28448;BME280;15675;52.870;-1.416;2022-10-16T06:55:33;100218.53;;;9.49;100.00
28448;BME280;15675;52.870;-1.416;2022-10-16T06:57:59;100234.06;;;9.60;100.00
28448;BME280;15675;52.870;-1.416;2022-10-16T07:00:24;100235.81;;;9.67;100.00
28448;BME280;15675;52.870;-1.416;2022-10-16T07:02:50;100237.53;;;9.59;100.00
28448;BME280;15675;52.870;-1.416;2022-10-16T07:05:15;100253.94;;;9.67;100.00
28448;BME280;15675;52.870;-1.416;2022-10-16T07:07:41;100269.47;;;9.48;100.00
28448;BME280;15675;52.870;-1.416;2022-10-16T07:10:07;100276.41;;;9.63;100.00
28448;BME280;15675;52.870;-1.416;2022-10-16T07:12:33;100276.41;;;9.63;100.00
28448;BME280;15675;52.870;-1.416;2022-10-16T07:14:58;100291.09;;;9.72;100.00
28448;BME280;15675;52.870;-1.416;2022-10-16T07:17:24;100294.53;;;9.80;100.00
28448;BME280;15675;52.870;-1.416;2022-10-16T07:19:49;100291.97;;;9.74;100.00
28448;BME280;15675;52.870;-1.416;2022-10-16T07:22:18;100304.06;;;9.69;100.00
28448;BME280;15675;52.870;-1.416;2022-10-16T07:24:43;100310.97;;;9.76;100.00
28448;BME280;15675;52.870;-1.416;2022-10-16T07:27:09;100314.41;;;9.83;100.00
28448;BME280;15675;52.870;-1.416;2022-10-16T07:29:35;100317.88;;;9.73;100.00
28448;BME280;15675;52.870;-1.416;2022-10-16T07:32:01;100310.97;;;9.96;100.00
28448;BME280;15675;52.870;-1.416;2022-10-16T07:34:27;100323.06;;;9.87;100.00
28448;BME280;15675;52.870;-1.416;2022-10-16T07:36:53;100328.25;;;9.94;100.00
28448;BME280;15675;52.870;-1.416;2022-10-16T07:39:18;100321.34;;;9.99;100.00
28448;BME280;15675;52.870;-1.416;2022-10-16T07:41:44;100335.16;;;10.00;100.00
28448;BME280;15675;52.870;-1.416;2022-10-16T07:44:10;100338.63;;;10.11;100.00
28448;BME280;15675;52.870;-1.416;2022-10-16T07:46:35;100354.19;;;10.07;100.00
28448;BME280;15675;52.870;-1.416;2022-10-16T07:49:02;100350.72;;;10.20;100.00
28448;BME280;15675;52.870;-1.416;2022-10-16T07:51:28;100349.88;;;10.38;100.00
28448;BME280;15675;52.870;-1.416;2022-10-16T07:53:53;100352.47;;;10.52;100.00
28448;BME280;15675;52.870;-1.416;2022-10-16T07:56:20;100354.19;;;10.36;100.00
28448;BME280;15675;52.870;-1.416;2022-10-16T07:58:46;100362.00;;;10.39;100.00
28448;BME280;15675;52.870;-1.416;2022-10-16T08:01:15;100363.69;;;10.40;100.00
28448;BME280;15675;52.870;-1.416;2022-10-16T08:03:45;100368.00;;;10.46;100.00
28448;BME280;15675;52.870;-1.416;2022-10-16T08:06:11;100378.41;;;10.57;100.00
28448;BME280;15675;52.870;-1.416;2022-10-16T08:08:36;100380.13;;;10.55;100.00
28448;BME280;15675;52.870;-1.416;2022-10-16T08:11:02;100385.34;;;10.55;100.00
28448;BME280;15675;52.870;-1.416;2022-10-16T08:13:30;100381.78;;;10.88;100.00
28448;BME280;15675;52.870;-1.416;2022-10-16T08:15:55;100380.09;;;10.75;100.00
28448;BME280;15675;52.870;-1.416;2022-10-16T08:18:21;100392.25;;;10.52;100.00
28448;BME280;15675;52.870;-1.416;2022-10-16T08:20:47;100392.22;;;10.56;100.00
28448;BME280;15675;52.870;-1.416;2022-10-16T08:23:12;100400.84;;;10.81;100.00
28448;BME280;15675;52.870;-1.416;2022-10-16T08:25:41;100406.91;;;10.77;100.00
28448;BME280;15675;52.870;-1.416;2022-10-16T08:28:09;100420.75;;;10.86;100.00
28448;BME280;15675;52.870;-1.416;2022-10-16T08:30:35;100425.91;;;11.00;100.00
28448;BME280;15675;52.870;-1.416;2022-10-16T08:33:01;100432.00;;;10.81;100.00
28448;BME280;15675;52.870;-1.416;2022-10-16T08:35:26;100435.47;;;10.87;100.00
28448;BME280;15675;52.870;-1.416;2022-10-16T08:37:52;100439.69;;;11.16;100.00
28448;BME280;15675;52.870;-1.416;2022-10-16T08:40:27;100433.63;;;11.22;100.00
28448;BME280;15675;52.870;-1.416;2022-10-16T08:46:03;100439.69;;;11.16;100.00
28448;BME280;15675;52.870;-1.416;2022-10-16T08:48:46;100438.84;;;11.11;100.00
28448;BME280;15675;52.870;-1.416;2022-10-16T08:51:19;100434.53;;;11.02;100.00
28448;BME280;15675;52.870;-1.416;2022-10-16T08:54:05;100431.84;;;11.33;100.00
28448;BME280;15675;52.870;-1.416;2022-10-16T08:56:31;100443.97;;;11.33;100.00
28448;BME280;15675;52.870;-1.416;2022-10-16T08:58:59;100443.97;;;11.28;100.00
28448;BME280;15675;52.870;-1.416;2022-10-16T09:01:39;100450.88;;;11.45;100.00
28448;BME280;15675;52.870;-1.416;2022-10-16T09:10:19;100469.88;;;11.54;100.00
28448;BME280;15675;52.870;-1.416;2022-10-16T09:12:53;100471.59;;;11.55;100.00
28448;BME280;15675;52.870;-1.416;2022-10-16T09:15:40;100465.66;;;11.24;100.00
28448;BME280;15675;52.870;-1.416;2022-10-16T09:18:20;100463.94;;;11.26;100.00
28448;BME280;15675;52.870;-1.416;2022-10-16T09:21:26;100464.69;;;11.47;100.00
28448;BME280;15675;52.870;-1.416;2022-10-16T09:23:44;100462.09;;;11.48;100.00
28448;BME280;15675;52.870;-1.416;2022-10-16T09:26:11;100472.47;;;11.50;100.00
28448;BME280;15675;52.870;-1.416;2022-10-16T09:28:38;100474.19;;;11.55;100.00
28448;BME280;15675;52.870;-1.416;2022-10-16T09:31:03;100475.91;;;11.58;100.00
28448;BME280;15675;52.870;-1.416;2022-10-16T09:33:33;100480.22;;;11.71;100.00
28448;BME280;15675;52.870;-1.416;2022-10-16T09:36:02;100486.25;;;11.77;100.00
28448;BME280;15675;52.870;-1.416;2022-10-16T09:38:31;100494.03;;;11.78;100.00
28448;BME280;15675;52.870;-1.416;2022-10-16T09:40:58;100497.41;;;11.92;100.00
28448;BME280;15675;52.870;-1.416;2022-10-16T09:43:46;100500.06;;;11.86;100.00
28448;BME280;15675;52.870;-1.416;2022-10-16T09:46:31;100488.78;;;11.87;100.00
28448;BME280;15675;52.870;-1.416;2022-10-16T09:49:02;100510.31;;;12.19;100.00
28448;BME280;15675;52.870;-1.416;2022-10-16T09:51:33;100505.97;;;12.21;100.00
28448;BME280;15675;52.870;-1.416;2022-10-16T09:56:36;100506.09;;;11.98;99.79
28448;BME280;15675;52.870;-1.416;2022-10-16T09:59:13;100513.00;;;12.05;98.89
28448;BME280;15675;52.870;-1.416;2022-10-16T10:01:44;100499.84;;;12.28;98.53
28448;BME280;15675;52.870;-1.416;2022-10-16T10:04:11;100509.56;;;12.04;96.12
28448;BME280;15675;52.870;-1.416;2022-10-16T10:06:42;100507.72;;;12.19;94.79
28448;BME280;15675;52.870;-1.416;2022-10-16T10:17:10;100530.88;;;12.59;90.36
28448;BME280;15675;52.870;-1.416;2022-10-16T10:19:47;100525.59;;;12.67;89.41
28448;BME280;15675;52.870;-1.416;2022-10-16T10:30:41;100521.78;;;13.05;90.00
28448;BME280;15675;52.870;-1.416;2022-10-16T10:38:31;100504.56;;;12.90;86.78
28448;BME280;15675;52.870;-1.416;2022-10-16T10:47:01;100507.09;;;12.98;84.94
28448;BME280;15675;52.870;-1.416;2022-10-16T10:49:53;100510.56;;;13.01;84.56
28448;BME280;15675;52.870;-1.416;2022-10-16T10:52:36;100508.72;;;13.08;83.78
28448;BME280;15675;52.870;-1.416;2022-10-16T10:55:17;100516.81;;;12.82;82.43
28448;BME280;15675;52.870;-1.416;2022-10-16T10:58:29;100518.56;;;12.78;84.61
28448;BME280;15675;52.870;-1.416;2022-10-16T11:01:09;100515.00;;;12.90;82.13
28448;BME280;15675;52.870;-1.416;2022-10-16T11:03:52;100518.97;;;13.25;80.93
28448;BME280;15675;52.870;-1.416;2022-10-16T11:06:26;100518.22;;;13.15;81.50
28448;BME280;15675;52.870;-1.416;2022-10-16T11:09:02;100507.38;;;13.57;80.81
28448;BME280;15675;52.870;-1.416;2022-10-16T11:11:35;100513.00;;;13.93;80.54
28448;BME280;15675;52.870;-1.416;2022-10-16T11:14:28;100513.19;;;13.79;78.58
28448;BME280;15675;52.870;-1.416;2022-10-16T11:16:57;100528.84;;;13.77;77.92
28448;BME280;15675;52.870;-1.416;2022-10-16T11:19:42;100526.56;;;13.48;75.98
28448;BME280;15675;52.870;-1.416;2022-10-16T11:25:05;100531.91;;;13.39;76.28
28448;BME280;15675;52.870;-1.416;2022-10-16T11:27:57;100538.94;;;13.29;76.27
28448;BME280;15675;52.870;-1.416;2022-10-16T11:30:28;100537.38;;;13.09;74.79
28448;BME280;15675;52.870;-1.416;2022-10-16T11:35:44;100538.63;;;13.60;74.99
28448;BME280;15675;52.870;-1.416;2022-10-16T11:38:18;100540.41;;;13.56;74.99
28448;BME280;15675;52.870;-1.416;2022-10-16T11:40:48;100532.72;;;13.44;74.08
28448;BME280;15675;52.870;-1.416;2022-10-16T11:43:24;100538.69;;;13.54;73.06
28448;BME280;15675;52.870;-1.416;2022-10-16T11:45:53;100545.41;;;13.73;75.29
28448;BME280;15675;52.870;-1.416;2022-10-16T11:48:31;100546.13;;;13.86;75.80
28448;BME280;15675;52.870;-1.416;2022-10-16T11:51:35;100561.03;;;13.75;73.23
28448;BME280;15675;52.870;-1.416;2022-10-16T11:54:14;100565.03;;;14.05;72.30
28448;BME280;15675;52.870;-1.416;2022-10-16T11:56:44;100553.88;;;13.94;71.67
28448;BME280;15675;52.870;-1.416;2022-10-16T12:01:54;100567.41;;;14.21;70.78
28448;BME280;15675;52.870;-1.416;2022-10-16T12:09:32;100564.03;;;14.75;70.16
28448;BME280;15675;52.870;-1.416;2022-10-16T12:11:58;100563.88;;;14.86;69.25
28448;BME280;15675;52.870;-1.416;2022-10-16T12:16:58;100567.88;;;14.49;67.68
28448;BME280;15675;52.870;-1.416;2022-10-16T12:19:28;100564.69;;;14.30;66.78
28448;BME280;15675;52.870;-1.416;2022-10-16T12:22:02;100573.16;;;14.46;67.01
28448;BME280;15675;52.870;-1.416;2022-10-16T12:24:35;100571.59;;;14.92;67.33
28448;BME280;15675;52.870;-1.416;2022-10-16T12:27:02;100571.56;;;14.95;66.10
28448;BME280;15675;52.870;-1.416;2022-10-16T12:29:41;100565.59;;;14.88;65.08
28448;BME280;15675;52.870;-1.416;2022-10-16T12:32:35;100563.97;;;14.81;64.19
28448;BME280;15675;52.870;-1.416;2022-10-16T12:35:02;100562.94;;;14.90;63.25
28448;BME280;15675;52.870;-1.416;2022-10-16T12:37:37;100562.00;;;14.94;63.44
28448;BME280;15675;52.870;-1.416;2022-10-16T12:40:24;100561.63;;;15.15;64.11
28448;BME280;15675;52.870;-1.416;2022-10-16T12:42:51;100561.78;;;15.06;61.81
28448;BME280;15675;52.870;-1.416;2022-10-16T12:45:31;100554.66;;;15.16;62.19
28448;BME280;15675;52.870;-1.416;2022-10-16T12:47:59;100558.59;;;15.39;60.74
28448;BME280;15675;52.870;-1.416;2022-10-16T12:50:31;100554.13;;;15.45;60.98
28448;BME280;15675;52.870;-1.416;2022-10-16T12:52:59;100549.81;;;15.43;61.23
28448;BME280;15675;52.870;-1.416;2022-10-16T12:55:26;100550.81;;;15.35;59.84
28448;BME280;15675;52.870;-1.416;2022-10-16T13:00:45;100543.88;;;15.33;62.64
28448;BME280;15675;52.870;-1.416;2022-10-16T13:03:44;100546.09;;;15.53;62.09
28448;BME280;15675;52.870;-1.416;2022-10-16T13:11:51;100543.00;;;15.34;58.92
28448;BME280;15675;52.870;-1.416;2022-10-16T13:14:47;100544.88;;;15.26;59.21
28448;BME280;15675;52.870;-1.416;2022-10-16T13:20:16;100542.56;;;15.56;57.55
28448;BME280;15675;52.870;-1.416;2022-10-16T13:25:37;100540.91;;;15.51;56.50
28448;BME280;15675;52.870;-1.416;2022-10-16T13:28:07;100533.72;;;15.63;58.17
28448;BME280;15675;52.870;-1.416;2022-10-16T13:30:50;100528.56;;;15.60;55.70
28448;BME280;15675;52.870;-1.416;2022-10-16T13:33:40;100531.03;;;15.66;55.71
28448;BME280;15675;52.870;-1.416;2022-10-16T13:36:19;100524.88;;;15.68;55.85
28448;BME280;15675;52.870;-1.416;2022-10-16T13:38:45;100527.94;;;15.47;55.23
28448;BME280;15675;52.870;-1.416;2022-10-16T13:41:16;100538.50;;;15.42;56.87
28448;BME280;15675;52.870;-1.416;2022-10-16T13:43:48;100547.06;;;15.49;55.44
28448;BME280;15675;52.870;-1.416;2022-10-16T13:46:17;100537.88;;;15.28;55.55
28448;BME280;15675;52.870;-1.416;2022-10-16T13:48:43;100558.03;;;15.23;55.78
28448;BME280;15675;52.870;-1.416;2022-10-16T13:51:17;100547.75;;;15.12;53.99
28448;BME280;15675;52.870;-1.416;2022-10-16T13:53:44;100546.44;;;15.36;52.49
28448;BME280;15675;52.870;-1.416;2022-10-16T13:56:16;100548.59;;;15.14;52.52
28448;BME280;15675;52.870;-1.416;2022-10-16T13:58:43;100542.78;;;15.45;52.27
28448;BME280;15675;52.870;-1.416;2022-10-16T14:01:30;100547.66;;;15.63;53.00
28448;BME280;15675;52.870;-1.416;2022-10-16T14:04:06;100549.81;;;15.88;53.23
28448;BME280;15675;52.870;-1.416;2022-10-16T14:06:33;100554.50;;;15.69;54.03
28448;BME280;15675;52.870;-1.416;2022-10-16T14:09:08;100545.31;;;15.95;53.49
28448;BME280;15675;52.870;-1.416;2022-10-16T14:11:44;100548.22;;;16.21;52.55